createdAt,value
2018-10-02T00:01:07.077Z,9.60
2018-10-02T00:03:35.231Z,11.20
2018-10-02T00:06:03.247Z,7.13
2018-10-02T00:08:31.248Z,10.77
2018-10-02T00:11:04.663Z,4.77
2018-10-02T00:13:37.976Z,6.97
2018-10-02T00:16:06.638Z,5.30
2018-10-02T00:18:34.803Z,6.53
2018-10-02T00:21:02.806Z,7.40
2018-10-02T00:23:30.833Z,7.30
2018-10-02T00:25:58.846Z,5.53
2018-10-02T00:28:26.835Z,6.00
2018-10-02T00:30:54.886Z,6.43
2018-10-02T00:33:22.958Z,5.33
2018-10-02T00:35:50.977Z,11.20
2018-10-02T00:38:18.979Z,7.80
2018-10-02T00:40:46.994Z,9.60
2018-10-02T00:43:14.993Z,6.23
2018-10-02T00:45:43.006Z,6.67
2018-10-02T00:48:11.016Z,6.53
2018-10-02T00:50:39.017Z,5.10
2018-10-02T00:53:07.028Z,8.80
2018-10-02T00:55:35.059Z,7.60
2018-10-02T00:58:03.223Z,5.80
2018-10-02T01:00:31.223Z,6.53
2018-10-02T01:02:59.231Z,7.43
2018-10-02T01:05:27.240Z,4.70
2018-10-02T01:07:55.255Z,6.37
2018-10-02T01:10:23.286Z,11.47
2018-10-02T01:12:51.303Z,7.93
2018-10-02T01:15:19.295Z,8.17
2018-10-02T01:17:47.315Z,6.60
2018-10-02T01:20:15.311Z,5.23
2018-10-02T01:22:43.303Z,9.57
2018-10-02T01:25:11.302Z,6.03
2018-10-02T01:27:39.322Z,6.43
2018-10-02T01:30:07.388Z,8.37
2018-10-02T01:32:35.627Z,8.77
2018-10-02T01:35:03.792Z,10.40
2018-10-02T01:37:31.799Z,7.90
2018-10-02T01:39:59.814Z,13.23
2018-10-02T01:42:27.824Z,8.53
2018-10-02T01:44:55.822Z,8.30
2018-10-02T01:47:23.818Z,13.70
2018-10-02T01:49:51.832Z,9.17
2018-10-02T01:52:19.830Z,6.35
2018-10-02T01:54:47.826Z,8.53
2018-10-02T01:57:15.842Z,7.00
2018-10-02T01:59:43.859Z,7.13
2018-10-02T02:02:11.858Z,7.23
2018-10-02T02:04:40.027Z,10.50
2018-10-02T02:07:08.031Z,9.07
2018-10-02T02:09:36.042Z,7.67
2018-10-02T02:12:04.962Z,7.50
2018-10-02T02:14:32.982Z,12.23
2018-10-02T02:17:00.986Z,6.27
2018-10-02T02:19:29.150Z,7.47
2018-10-02T02:21:57.160Z,6.50
2018-10-02T02:24:25.155Z,9.83
2018-10-02T02:26:53.188Z,6.67
2018-10-02T02:29:21.187Z,6.13
2018-10-02T02:31:49.175Z,8.40
2018-10-02T02:34:17.215Z,6.50
2018-10-02T02:36:45.221Z,6.15
2018-10-02T02:39:13.211Z,8.00
2018-10-02T02:41:41.215Z,8.80
2018-10-02T02:44:09.223Z,6.83
2018-10-02T02:46:37.210Z,9.07
2018-10-02T02:49:10.640Z,8.57
2018-10-02T02:51:38.650Z,8.67
2018-10-02T02:54:06.687Z,7.53
2018-10-02T02:56:34.691Z,7.03
2018-10-02T02:59:03.514Z,6.80
2018-10-02T03:01:31.535Z,7.67
2018-10-02T03:03:59.920Z,7.90
2018-10-02T03:06:27.958Z,7.17
2018-10-02T03:08:56.287Z,8.07
2018-10-02T03:11:24.293Z,5.77
2018-10-02T03:13:52.291Z,8.47
2018-10-02T03:16:20.607Z,7.50
2018-10-02T03:18:48.611Z,8.20
2018-10-02T03:21:16.685Z,7.67
2018-10-02T03:23:44.703Z,7.22
2018-10-02T03:26:12.882Z,9.93
2018-10-02T03:28:40.897Z,6.17
2018-10-02T03:31:08.972Z,5.00
2018-10-02T03:33:37.010Z,5.30
2018-10-02T03:36:05.083Z,6.10
2018-10-02T03:38:33.168Z,6.23
2018-10-02T03:41:01.167Z,4.73
2018-10-02T03:43:29.299Z,8.37
2018-10-02T03:45:57.310Z,5.83
2018-10-02T03:48:25.534Z,4.10
2018-10-02T03:50:53.832Z,4.07
2018-10-02T03:53:21.891Z,6.55
2018-10-02T03:55:49.911Z,7.53
2018-10-02T03:58:17.919Z,4.92
2018-10-02T04:00:46.132Z,10.70
2018-10-02T04:03:14.223Z,4.15
2018-10-02T04:05:42.275Z,7.27
2018-10-02T04:08:10.283Z,8.70
2018-10-02T04:10:38.298Z,5.37
2018-10-02T04:13:06.817Z,7.77
2018-10-02T04:15:34.759Z,9.40
2018-10-02T04:18:02.970Z,6.43
2018-10-02T04:20:31.104Z,8.67
2018-10-02T04:22:59.127Z,5.43
2018-10-02T04:25:27.143Z,6.77
2018-10-02T04:27:55.178Z,4.97
2018-10-02T04:30:23.158Z,7.23
2018-10-02T04:32:51.171Z,5.60
2018-10-02T04:35:19.190Z,11.47
2018-10-02T04:37:47.211Z,8.77
2018-10-02T04:40:15.222Z,12.68
2018-10-02T04:42:43.223Z,8.27
2018-10-02T04:45:11.235Z,7.50
2018-10-02T04:47:39.270Z,7.27
2018-10-02T04:50:07.531Z,8.77
2018-10-02T04:52:35.578Z,7.17
2018-10-02T04:55:04.719Z,11.12
2018-10-02T04:57:32.657Z,7.90
2018-10-02T05:00:00.731Z,7.67
2018-10-02T05:02:28.866Z,11.27
2018-10-02T05:04:56.819Z,9.00
2018-10-02T05:07:24.838Z,7.90
2018-10-02T05:09:52.856Z,9.20
2018-10-02T05:12:20.965Z,10.80
2018-10-02T05:14:48.980Z,8.05
2018-10-02T05:17:16.977Z,8.00
2018-10-02T05:19:44.984Z,9.93
2018-10-02T05:22:13.057Z,10.40
2018-10-02T05:24:41.141Z,11.00
2018-10-02T05:27:09.200Z,13.70
2018-10-02T05:29:37.164Z,8.40
2018-10-02T05:32:05.343Z,11.00
2018-10-02T05:34:33.408Z,11.17
2018-10-02T05:37:01.483Z,9.50
2018-10-02T05:39:29.564Z,13.53
2018-10-02T05:41:57.636Z,10.07
2018-10-02T05:44:25.992Z,12.30
2018-10-02T05:46:54.001Z,8.77
2018-10-02T05:49:22.023Z,10.25
2018-10-02T05:51:50.225Z,9.57
2018-10-02T05:54:18.236Z,13.00
2018-10-02T05:56:46.375Z,11.30
2018-10-02T05:59:14.597Z,10.23
2018-10-02T06:01:42.617Z,10.03
2018-10-02T06:04:10.872Z,11.10
2018-10-02T06:06:38.973Z,11.37
2018-10-02T06:09:09.076Z,10.23
2018-10-02T06:11:37.315Z,11.33
2018-10-02T06:14:05.789Z,11.70
2018-10-02T06:16:33.838Z,12.07
2018-10-02T06:19:02.244Z,10.20
2018-10-02T06:21:30.289Z,11.57
2018-10-02T06:23:58.539Z,11.33
2018-10-02T06:26:26.592Z,13.30
2018-10-02T06:28:54.731Z,12.20
2018-10-02T06:31:22.755Z,12.47
2018-10-02T06:33:50.792Z,13.40
2018-10-02T06:36:18.795Z,11.60
2018-10-02T06:38:47.709Z,11.80
2018-10-02T06:41:15.714Z,13.40
2018-10-02T06:43:43.747Z,10.87
2018-10-02T06:46:11.832Z,9.80
2018-10-02T06:48:39.842Z,12.00
2018-10-02T06:51:08.178Z,17.07
2018-10-02T06:53:36.528Z,12.60
2018-10-02T06:56:05.045Z,11.87
2018-10-02T06:58:33.080Z,10.07
2018-10-02T07:01:01.113Z,14.57
2018-10-02T07:03:29.124Z,11.80
2018-10-02T07:05:57.256Z,10.60
2018-10-02T07:08:25.293Z,8.70
2018-10-02T07:10:53.311Z,10.57
2018-10-02T07:13:21.332Z,11.30
2018-10-02T07:15:49.536Z,11.97
2018-10-02T07:18:17.551Z,9.60
2018-10-02T07:20:45.678Z,10.30
2018-10-02T07:23:13.601Z,11.23
2018-10-02T07:25:41.619Z,9.97
2018-10-02T07:28:09.653Z,9.33
2018-10-02T07:30:37.722Z,11.33
2018-10-02T07:33:05.788Z,13.37
2018-10-02T07:35:33.695Z,9.60
2018-10-02T07:38:01.732Z,8.33
2018-10-02T07:40:29.736Z,10.23
2018-10-02T07:42:58.585Z,14.43
2018-10-02T07:45:26.596Z,9.47
2018-10-02T07:47:54.788Z,12.67
2018-10-02T07:50:22.830Z,9.47
2018-10-02T07:52:50.791Z,13.00
2018-10-02T07:55:18.811Z,9.00
2018-10-02T07:57:46.832Z,10.50
2018-10-02T08:00:15.116Z,12.13
2018-10-02T08:02:43.142Z,10.10
2018-10-02T08:05:11.286Z,11.85
2018-10-02T08:07:39.253Z,10.77
2018-10-02T08:10:07.274Z,10.63
2018-10-02T08:12:35.291Z,12.30
2018-10-02T08:15:03.559Z,8.23
2018-10-02T08:17:31.603Z,8.00
2018-10-02T08:19:59.697Z,10.30
2018-10-02T08:22:27.592Z,11.43
2018-10-02T08:24:55.992Z,9.23
2018-10-02T08:27:24.081Z,9.60
2018-10-02T08:29:52.108Z,9.87
2018-10-02T08:32:20.068Z,13.20
2018-10-02T08:34:48.076Z,8.87
2018-10-02T08:37:16.163Z,7.93
2018-10-02T08:39:44.172Z,8.47
2018-10-02T08:42:12.180Z,8.80
2018-10-02T08:44:40.439Z,8.87
2018-10-02T08:47:08.436Z,8.03
2018-10-02T08:49:36.467Z,12.63
2018-10-02T08:52:05.102Z,8.77
2018-10-02T08:54:32.988Z,9.83
2018-10-02T08:57:01.003Z,10.17
2018-10-02T08:59:29.035Z,8.13
2018-10-02T09:01:57.048Z,9.17
2018-10-02T09:04:25.067Z,8.37
2018-10-02T09:06:58.410Z,7.80
2018-10-02T09:09:26.614Z,7.62
2018-10-02T09:11:54.680Z,9.47
2018-10-02T09:14:22.708Z,9.73
2018-10-02T09:16:50.785Z,9.30
2018-10-02T09:19:18.888Z,6.90
2018-10-02T09:21:47.137Z,9.70
2018-10-02T09:24:15.084Z,7.75
2018-10-02T09:26:43.116Z,7.20
2018-10-02T09:29:11.194Z,11.07
2018-10-02T09:31:44.644Z,7.67
2018-10-02T09:34:18.191Z,8.60
2018-10-02T09:36:51.522Z,10.10
2018-10-02T09:39:24.900Z,10.47
2018-10-02T09:44:32.664Z,10.40
2018-10-02T09:47:00.852Z,9.43
2018-10-02T09:49:28.868Z,10.87
2018-10-02T09:51:57.013Z,8.87
2018-10-02T09:54:25.053Z,11.30
2018-10-02T09:56:53.201Z,11.53
2018-10-02T09:59:21.179Z,18.37
2018-10-02T10:02:09.778Z,10.83
2018-10-02T10:04:37.816Z,13.13
2018-10-02T10:07:06.005Z,11.20
2018-10-02T10:09:34.041Z,13.30
2018-10-02T10:12:02.079Z,13.03
2018-10-02T10:14:30.120Z,11.07
2018-10-02T10:16:58.206Z,12.43
2018-10-02T10:19:26.361Z,11.22
2018-10-02T10:22:10.342Z,11.63
2018-10-02T10:24:38.479Z,10.33
2018-10-02T10:27:06.839Z,12.63
2018-10-02T10:29:34.926Z,13.73
2018-10-02T10:32:03.383Z,12.43
2018-10-02T10:37:10.971Z,13.00
2018-10-02T10:39:38.988Z,15.93
2018-10-02T10:42:07.067Z,13.53
2018-10-02T10:44:35.108Z,12.77
2018-10-02T10:47:03.503Z,13.67
2018-10-02T10:49:31.464Z,14.40
2018-10-02T10:51:59.557Z,17.10
2018-10-02T10:54:27.596Z,16.80
2018-10-02T10:56:55.663Z,18.67
2018-10-02T10:59:23.687Z,16.03
2018-10-02T11:01:51.819Z,15.70
2018-10-02T11:04:19.859Z,15.90
2018-10-02T11:06:48.012Z,17.43
2018-10-02T11:09:16.081Z,17.53
2018-10-02T11:11:44.044Z,17.90
2018-10-02T11:14:12.373Z,19.10
2018-10-02T11:16:40.556Z,18.90
2018-10-02T11:19:14.977Z,16.30
2018-10-02T11:21:43.017Z,17.03
2018-10-02T11:24:11.240Z,16.00
2018-10-02T11:26:39.272Z,18.30
2018-10-02T11:29:07.364Z,17.47
2018-10-02T11:31:35.467Z,17.60
2018-10-02T11:34:03.494Z,17.13
2018-10-02T11:36:31.540Z,17.30
2018-10-02T11:39:00.155Z,18.47
2018-10-02T11:41:28.195Z,16.17
2018-10-02T11:43:56.461Z,18.27
2018-10-02T11:46:24.429Z,17.90
2018-10-02T11:48:52.536Z,21.60
2018-10-02T11:51:20.611Z,17.37
2018-10-02T11:53:48.627Z,19.60
2018-10-02T11:56:16.640Z,17.30
2018-10-02T11:58:44.671Z,18.70
2018-10-02T12:01:12.770Z,17.57
2018-10-02T12:03:40.716Z,16.00
2018-10-02T12:06:09.320Z,16.83
2018-10-02T12:08:37.360Z,16.50
2018-10-02T12:11:05.468Z,15.63
2018-10-02T12:13:33.759Z,16.07
2018-10-02T12:16:01.915Z,16.50
2018-10-02T12:18:29.931Z,15.73
2018-10-02T12:20:57.961Z,15.13
2018-10-02T12:23:26.135Z,16.07
2018-10-02T12:25:54.383Z,17.67
2018-10-02T12:28:22.460Z,15.05
2018-10-02T12:30:50.524Z,14.30
2018-10-02T12:33:18.540Z,14.85
2018-10-02T12:35:46.783Z,15.17
2018-10-02T12:38:14.857Z,17.30
2018-10-02T12:40:42.952Z,18.20
2018-10-02T12:43:11.307Z,16.90
2018-10-02T12:45:39.380Z,15.93
2018-10-02T12:48:07.472Z,14.80
2018-10-02T12:50:35.532Z,15.90
2018-10-02T12:53:03.599Z,15.73
2018-10-02T12:55:31.672Z,14.53
2018-10-02T12:57:59.756Z,13.90
2018-10-02T13:00:27.803Z,15.60
2018-10-02T13:02:55.820Z,17.53
2018-10-02T13:05:23.944Z,13.87
2018-10-02T13:07:52.067Z,13.83
2018-10-02T13:10:20.100Z,12.53
2018-10-02T13:12:48.162Z,15.23
2018-10-02T13:15:16.240Z,15.53
2018-10-02T13:17:44.600Z,17.53
2018-10-02T13:20:12.611Z,14.67
2018-10-02T13:22:40.643Z,14.57
2018-10-02T13:25:08.697Z,14.90
2018-10-02T13:27:36.697Z,13.73
2018-10-02T13:30:06.078Z,13.70
2018-10-02T13:32:34.126Z,13.87
2018-10-02T13:35:02.209Z,12.13
2018-10-02T13:37:30.248Z,16.07
2018-10-02T13:39:58.267Z,14.63
2018-10-02T13:42:26.288Z,12.87
2018-10-02T13:44:54.317Z,12.30
2018-10-02T13:47:22.345Z,14.40
2018-10-02T13:49:51.138Z,12.87
2018-10-02T13:52:19.312Z,11.22
2018-10-02T13:54:47.696Z,11.00
2018-10-02T13:57:16.503Z,12.50
2018-10-02T13:59:44.533Z,13.37
2018-10-02T14:02:12.636Z,10.63
2018-10-02T14:04:41.351Z,10.43
2018-10-02T14:07:09.586Z,9.83
2018-10-02T14:09:37.607Z,12.13
2018-10-02T14:12:05.633Z,13.10
2018-10-02T14:14:35.467Z,13.25
2018-10-02T14:17:03.495Z,9.93
2018-10-02T14:19:32.466Z,11.60
2018-10-02T14:22:00.772Z,11.43
2018-10-02T14:24:29.271Z,10.73
2018-10-02T14:26:57.291Z,11.70
2018-10-02T14:29:25.424Z,10.60
2018-10-02T14:31:53.463Z,9.87
2018-10-02T14:34:22.096Z,8.03
2018-10-02T14:36:50.100Z,8.50
2018-10-02T14:39:18.276Z,4.35
2018-10-02T14:41:46.382Z,7.50
2018-10-02T14:44:14.472Z,7.50
2018-10-02T14:46:42.528Z,11.30
2018-10-02T14:49:10.549Z,13.32
2018-10-02T14:51:38.676Z,7.87
2018-10-02T14:54:06.756Z,8.23
2018-10-02T14:56:34.788Z,9.77
2018-10-02T14:59:04.168Z,8.07
2018-10-02T15:01:32.195Z,6.60
2018-10-02T15:04:00.216Z,8.87
2018-10-02T15:06:28.255Z,8.50
2018-10-02T15:08:56.388Z,4.90
2018-10-02T15:11:24.449Z,6.13
2018-10-02T15:13:52.484Z,7.80
2018-10-02T15:16:20.499Z,7.83
2018-10-02T15:18:48.525Z,5.20
2018-10-02T15:21:16.544Z,5.37
2018-10-02T15:23:44.567Z,5.03
2018-10-02T15:26:12.875Z,6.97
2018-10-02T15:28:40.964Z,6.90
2018-10-02T15:31:08.993Z,8.20
2018-10-02T15:33:37.392Z,8.17
2018-10-02T15:36:05.424Z,5.37
2018-10-02T15:38:33.464Z,4.17
2018-10-02T15:41:01.922Z,3.97
2018-10-02T15:43:29.948Z,5.67
2018-10-02T15:45:57.980Z,7.00
2018-10-02T15:48:26.024Z,7.27
2018-10-02T15:50:54.089Z,4.83
2018-10-02T15:53:22.085Z,8.30
2018-10-02T15:55:50.109Z,5.20
2018-10-02T15:58:18.135Z,6.67
2018-10-02T16:00:46.480Z,8.27
2018-10-02T16:03:14.525Z,7.30
2018-10-02T16:05:42.541Z,8.30
2018-10-02T16:08:10.585Z,7.93
2018-10-02T16:10:38.612Z,10.47
2018-10-02T16:13:06.824Z,9.47
2018-10-02T16:15:34.859Z,6.17
2018-10-02T16:18:02.925Z,6.30
2018-10-02T16:20:30.918Z,7.80
2018-10-02T16:22:58.935Z,8.13
2018-10-02T16:25:26.961Z,8.03
2018-10-02T16:27:55.000Z,8.03
2018-10-02T16:30:23.015Z,4.57
2018-10-02T16:32:51.068Z,10.60
2018-10-02T16:35:19.093Z,8.40
2018-10-02T16:37:47.117Z,6.17
2018-10-02T16:40:15.132Z,9.13
2018-10-02T16:42:43.303Z,9.37
2018-10-02T16:45:11.352Z,6.60
2018-10-02T16:47:39.427Z,8.67
2018-10-02T16:50:07.460Z,5.67
2018-10-02T16:52:36.387Z,7.00
2018-10-02T16:55:05.292Z,12.60
2018-10-02T16:57:33.319Z,9.77
2018-10-02T17:00:01.472Z,5.63
2018-10-02T17:02:29.564Z,9.40
2018-10-02T17:04:57.581Z,7.70
2018-10-02T17:07:25.748Z,7.37
2018-10-02T17:09:53.780Z,8.90
2018-10-02T17:12:21.796Z,9.93
2018-10-02T17:14:49.846Z,10.80
2018-10-02T17:17:17.867Z,7.47
2018-10-02T17:19:46.537Z,7.20
2018-10-02T17:22:14.577Z,6.72
2018-10-02T17:24:42.779Z,12.87
2018-10-02T17:27:10.928Z,6.40
2018-10-02T17:29:38.947Z,8.67
2018-10-02T17:32:08.044Z,10.10
2018-10-02T17:34:36.082Z,7.03
2018-10-02T17:37:05.247Z,10.83
2018-10-02T17:39:33.264Z,7.23
2018-10-02T17:42:01.288Z,10.90
2018-10-02T17:44:29.317Z,11.17
2018-10-02T17:46:57.407Z,7.57
2018-10-02T17:49:25.450Z,11.20
2018-10-02T17:51:53.436Z,7.97
2018-10-02T17:54:21.644Z,9.93
2018-10-02T17:56:49.660Z,14.63
2018-10-02T17:59:17.692Z,7.62
2018-10-02T18:01:45.876Z,9.67
2018-10-02T18:04:13.897Z,11.13
2018-10-02T18:06:41.912Z,9.97
2018-10-02T18:09:09.952Z,7.55
2018-10-02T18:11:38.288Z,13.30
2018-10-02T18:14:06.323Z,9.73
2018-10-02T18:16:34.352Z,10.87
2018-10-02T18:19:02.476Z,9.67
2018-10-02T18:21:30.528Z,9.13
2018-10-02T18:23:58.772Z,12.60
2018-10-02T18:26:26.859Z,9.40
2018-10-02T18:28:55.056Z,8.73
2018-10-02T18:31:23.159Z,10.97
2018-10-02T18:33:51.472Z,11.17
2018-10-02T18:36:19.524Z,9.60
2018-10-02T18:38:47.579Z,11.17
2018-10-02T18:41:15.612Z,9.17
2018-10-02T18:43:43.659Z,9.50
2018-10-02T18:46:11.700Z,12.97
2018-10-02T18:48:39.748Z,10.87
2018-10-02T18:51:07.760Z,13.67
2018-10-02T18:53:35.799Z,12.43
2018-10-02T18:56:05.063Z,13.97
2018-10-02T18:58:33.088Z,9.03
2018-10-02T19:01:01.162Z,12.90
2018-10-02T19:03:29.228Z,9.27
2018-10-02T19:05:57.312Z,9.10
2018-10-02T19:08:30.696Z,15.27
2018-10-02T19:13:04.904Z,12.67
2018-10-02T19:15:38.180Z,11.70
2018-10-02T19:18:06.218Z,10.30
2018-10-02T19:20:39.609Z,13.80
2018-10-02T19:23:07.640Z,14.50
2018-10-02T19:25:40.928Z,11.87
2018-10-02T19:28:09.107Z,11.23
2018-10-02T19:30:42.380Z,8.83
2018-10-02T19:33:10.408Z,13.68
2018-10-02T19:35:38.436Z,13.77
2018-10-02T19:38:11.878Z,10.67
2018-10-02T19:40:39.928Z,10.57
2018-10-02T19:43:07.948Z,12.13
2018-10-02T19:45:41.225Z,9.67
2018-10-02T19:48:09.260Z,13.28
2018-10-02T19:50:37.297Z,14.13
2018-10-02T19:53:06.317Z,14.00
2018-10-02T19:55:34.323Z,16.13
2018-10-02T19:58:03.245Z,15.97
2018-10-02T20:00:31.273Z,15.13
2018-10-02T20:02:59.448Z,15.27
2018-10-02T20:05:27.492Z,16.27
2018-10-02T20:07:55.516Z,12.00
2018-10-02T20:10:24.429Z,13.80
2018-10-02T20:12:52.452Z,10.27
2018-10-02T20:15:20.741Z,11.57
2018-10-02T20:17:48.768Z,13.53
2018-10-02T20:20:16.816Z,12.63
2018-10-02T20:22:44.916Z,12.97
2018-10-02T20:25:12.948Z,12.82
2018-10-02T20:27:41.112Z,11.63
2018-10-02T20:30:09.147Z,13.70
2018-10-02T20:32:37.178Z,10.07
2018-10-02T20:35:05.201Z,16.30
2018-10-02T20:37:33.226Z,19.97
2018-10-02T20:40:01.236Z,11.80
2018-10-02T20:42:29.259Z,16.33
2018-10-02T20:44:57.290Z,13.17
2018-10-02T20:47:25.311Z,18.23
2018-10-02T20:49:53.872Z,13.33
2018-10-02T20:52:21.904Z,12.57
2018-10-02T20:54:50.520Z,13.00
2018-10-02T20:57:18.559Z,11.30
2018-10-02T20:59:46.604Z,10.73
2018-10-02T21:02:14.777Z,12.07
2018-10-02T21:04:43.801Z,12.63
2018-10-02T21:07:11.828Z,14.85
2018-10-02T21:09:40.016Z,13.50
2018-10-02T21:12:08.040Z,18.20
2018-10-02T21:14:36.044Z,9.70
2018-10-02T21:17:07.132Z,14.04
2018-10-02T21:19:35.184Z,22.97
2018-10-02T21:22:03.223Z,11.13
2018-10-02T21:24:31.268Z,14.20
2018-10-02T21:26:59.284Z,15.37
2018-10-02T21:29:27.822Z,16.47
2018-10-02T21:31:55.896Z,15.50
2018-10-02T21:34:23.912Z,14.23
2018-10-02T21:36:52.078Z,18.27
2018-10-02T21:39:20.099Z,13.73
2018-10-02T21:41:48.116Z,13.90
2018-10-02T21:44:16.149Z,16.30
2018-10-02T21:46:44.160Z,13.57
2018-10-02T21:49:12.194Z,15.17
2018-10-02T21:51:40.197Z,14.53
2018-10-02T21:54:08.223Z,10.50
2018-10-02T21:56:36.275Z,19.03
2018-10-02T21:59:05.620Z,9.85
2018-10-02T22:01:33.683Z,17.73
2018-10-02T22:04:01.713Z,12.23
2018-10-02T22:06:29.740Z,16.13
2018-10-02T22:08:57.764Z,18.47
2018-10-02T22:11:25.784Z,13.47
2018-10-02T22:13:53.791Z,14.53
2018-10-02T22:16:21.808Z,14.83
2018-10-02T22:18:49.845Z,10.00
2018-10-02T22:21:17.859Z,14.97
2018-10-02T22:23:45.893Z,20.13
2018-10-02T22:26:13.916Z,11.85
2018-10-02T22:28:41.947Z,18.17
2018-10-02T22:31:09.964Z,15.20
2018-10-02T22:33:38.053Z,15.50
2018-10-02T22:36:06.015Z,20.80
2018-10-02T22:38:34.048Z,16.87
2018-10-02T22:41:02.060Z,19.13
2018-10-02T22:43:30.088Z,16.70
2018-10-02T22:45:58.095Z,15.27
2018-10-02T22:48:26.116Z,16.87
2018-10-02T22:50:54.144Z,13.87
2018-10-02T22:53:22.164Z,11.00
2018-10-02T22:55:50.196Z,16.97
2018-10-02T22:58:18.216Z,19.80
2018-10-02T23:00:47.381Z,17.47
2018-10-02T23:03:15.627Z,10.23
2018-10-02T23:05:43.691Z,18.27
2018-10-02T23:08:11.702Z,13.35
2018-10-02T23:10:39.716Z,20.90
2018-10-02T23:13:07.787Z,15.67
2018-10-02T23:15:35.810Z,14.13
2018-10-02T23:18:03.992Z,15.33
2018-10-02T23:20:32.016Z,15.50
2018-10-02T23:23:00.045Z,20.40
2018-10-02T23:25:28.057Z,16.57
2018-10-02T23:27:56.072Z,15.60
2018-10-02T23:30:24.116Z,18.02
2018-10-02T23:32:52.133Z,19.90
2018-10-02T23:35:20.156Z,19.17
2018-10-02T23:37:48.173Z,15.47
2018-10-02T23:40:16.355Z,12.97
2018-10-02T23:42:44.363Z,21.00
2018-10-02T23:45:12.405Z,15.45
2018-10-02T23:47:40.435Z,19.30
2018-10-02T23:50:08.469Z,16.90
2018-10-02T23:52:43.179Z,19.50
2018-10-02T23:55:11.197Z,19.13
2018-10-02T23:57:39.223Z,18.13
